sensor_id;sensor_type;location;lat;lon;timestamp;temperature;humidity
56172;DHT22;42052;41.634;-0.946;2022-08-19T00:01:27;25.00;46.90
56172;DHT22;42052;41.634;-0.946;2022-08-19T00:03:59;25.00;46.80
56172;DHT22;42052;41.634;-0.946;2022-08-19T00:06:26;25.00;46.80
56172;DHT22;42052;41.634;-0.946;2022-08-19T00:08:52;25.00;46.80
56172;DHT22;42052;41.634;-0.946;2022-08-19T00:11:18;25.00;46.70
56172;DHT22;42052;41.634;-0.946;2022-08-19T00:13:44;25.00;46.60
56172;DHT22;42052;41.634;-0.946;2022-08-19T00:16:11;25.00;46.40
56172;DHT22;42052;41.634;-0.946;2022-08-19T00:18:37;25.10;46.40
56172;DHT22;42052;41.634;-0.946;2022-08-19T00:21:03;25.10;46.30
56172;DHT22;42052;41.634;-0.946;2022-08-19T00:23:33;25.00;46.20
56172;DHT22;42052;41.634;-0.946;2022-08-19T00:26:00;25.00;46.20
56172;DHT22;42052;41.634;-0.946;2022-08-19T00:28:26;25.00;46.20
56172;DHT22;42052;41.634;-0.946;2022-08-19T00:30:52;25.00;46.20
56172;DHT22;42052;41.634;-0.946;2022-08-19T00:33:19;25.00;46.30
56172;DHT22;42052;41.634;-0.946;2022-08-19T00:35:46;25.00;46.30
56172;DHT22;42052;41.634;-0.946;2022-08-19T00:38:12;25.00;46.30
56172;DHT22;42052;41.634;-0.946;2022-08-19T00:40:38;25.00;46.30
56172;DHT22;42052;41.634;-0.946;2022-08-19T00:43:12;25.00;46.30
56172;DHT22;42052;41.634;-0.946;2022-08-19T00:45:39;25.10;46.40
56172;DHT22;42052;41.634;-0.946;2022-08-19T00:48:08;25.10;46.40
56172;DHT22;42052;41.634;-0.946;2022-08-19T00:50:34;25.10;46.50
56172;DHT22;42052;41.634;-0.946;2022-08-19T00:53:01;25.10;46.40
56172;DHT22;42052;41.634;-0.946;2022-08-19T00:55:31;25.00;46.30
56172;DHT22;42052;41.634;-0.946;2022-08-19T00:58:04;25.10;46.40
56172;DHT22;42052;41.634;-0.946;2022-08-19T01:00:31;25.10;46.40
56172;DHT22;42052;41.634;-0.946;2022-08-19T01:02:58;25.10;46.50
56172;DHT22;42052;41.634;-0.946;2022-08-19T01:05:27;25.00;46.40
56172;DHT22;42052;41.634;-0.946;2022-08-19T01:07:55;25.00;46.30
56172;DHT22;42052;41.634;-0.946;2022-08-19T01:10:25;25.00;46.30
56172;DHT22;42052;41.634;-0.946;2022-08-19T01:12:52;25.00;46.30
56172;DHT22;42052;41.634;-0.946;2022-08-19T01:15:23;25.00;46.30
56172;DHT22;42052;41.634;-0.946;2022-08-19T01:17:52;25.00;46.30
56172;DHT22;42052;41.634;-0.946;2022-08-19T01:20:21;25.10;46.20
56172;DHT22;42052;41.634;-0.946;2022-08-19T01:22:56;25.10;46.20
56172;DHT22;42052;41.634;-0.946;2022-08-19T01:25:28;25.10;46.20
56172;DHT22;42052;41.634;-0.946;2022-08-19T01:27:55;25.10;46.20
56172;DHT22;42052;41.634;-0.946;2022-08-19T01:30:25;25.10;46.10
56172;DHT22;42052;41.634;-0.946;2022-08-19T01:32:53;25.10;46.10
56172;DHT22;42052;41.634;-0.946;2022-08-19T01:35:20;25.10;46.10
56172;DHT22;42052;41.634;-0.946;2022-08-19T01:37:56;25.00;46.10
56172;DHT22;42052;41.634;-0.946;2022-08-19T01:40:31;25.00;46.20
56172;DHT22;42052;41.634;-0.946;2022-08-19T01:42:57;25.10;46.20
56172;DHT22;42052;41.634;-0.946;2022-08-19T01:45:25;25.10;46.10
56172;DHT22;42052;41.634;-0.946;2022-08-19T01:47:51;25.00;46.00
56172;DHT22;42052;41.634;-0.946;2022-08-19T01:50:17;25.00;46.20
56172;DHT22;42052;41.634;-0.946;2022-08-19T01:52:44;25.00;46.40
56172;DHT22;42052;41.634;-0.946;2022-08-19T01:55:18;25.00;46.50
56172;DHT22;42052;41.634;-0.946;2022-08-19T01:57:48;25.00;46.50
56172;DHT22;42052;41.634;-0.946;2022-08-19T02:00:16;25.10;46.30
56172;DHT22;42052;41.634;-0.946;2022-08-19T02:02:43;25.00;46.40
56172;DHT22;42052;41.634;-0.946;2022-08-19T02:05:09;25.00;46.40
56172;DHT22;42052;41.634;-0.946;2022-08-19T02:07:36;25.00;46.30
56172;DHT22;42052;41.634;-0.946;2022-08-19T02:10:08;25.00;46.30
56172;DHT22;42052;41.634;-0.946;2022-08-19T02:12:34;25.00;46.30
56172;DHT22;42052;41.634;-0.946;2022-08-19T02:15:01;25.00;46.30
56172;DHT22;42052;41.634;-0.946;2022-08-19T02:17:28;25.10;46.20
56172;DHT22;42052;41.634;-0.946;2022-08-19T02:19:58;25.00;46.20
56172;DHT22;42052;41.634;-0.946;2022-08-19T02:22:24;25.00;46.30
56172;DHT22;42052;41.634;-0.946;2022-08-19T02:24:52;25.00;46.30
56172;DHT22;42052;41.634;-0.946;2022-08-19T02:27:18;25.00;46.40
56172;DHT22;42052;41.634;-0.946;2022-08-19T02:29:46;25.00;46.50
56172;DHT22;42052;41.634;-0.946;2022-08-19T02:32:12;25.00;46.60
56172;DHT22;42052;41.634;-0.946;2022-08-19T02:34:39;24.90;46.60
56172;DHT22;42052;41.634;-0.946;2022-08-19T02:37:05;25.00;46.60
56172;DHT22;42052;41.634;-0.946;2022-08-19T02:39:31;25.00;46.60
56172;DHT22;42052;41.634;-0.946;2022-08-19T02:41:57;25.00;46.40
56172;DHT22;42052;41.634;-0.946;2022-08-19T02:44:25;25.00;46.40
56172;DHT22;42052;41.634;-0.946;2022-08-19T02:46:51;25.00;46.60
56172;DHT22;42052;41.634;-0.946;2022-08-19T02:49:16;25.00;46.60
56172;DHT22;42052;41.634;-0.946;2022-08-19T02:51:44;25.00;46.50
56172;DHT22;42052;41.634;-0.946;2022-08-19T02:54:11;25.00;46.60
56172;DHT22;42052;41.634;-0.946;2022-08-19T02:56:40;25.00;46.50
56172;DHT22;42052;41.634;-0.946;2022-08-19T02:59:06;24.90;46.60
56172;DHT22;42052;41.634;-0.946;2022-08-19T03:01:37;24.90;46.70
56172;DHT22;42052;41.634;-0.946;2022-08-19T03:04:08;24.90;46.70
56172;DHT22;42052;41.634;-0.946;2022-08-19T03:06:37;24.90;46.70
56172;DHT22;42052;41.634;-0.946;2022-08-19T03:09:03;24.90;46.50
56172;DHT22;42052;41.634;-0.946;2022-08-19T03:11:30;24.90;46.40
56172;DHT22;42052;41.634;-0.946;2022-08-19T03:13:57;24.90;46.40
56172;DHT22;42052;41.634;-0.946;2022-08-19T03:16:25;24.90;46.40
56172;DHT22;42052;41.634;-0.946;2022-08-19T03:18:51;24.90;46.30
56172;DHT22;42052;41.634;-0.946;2022-08-19T03:21:21;24.80;46.20
56172;DHT22;42052;41.634;-0.946;2022-08-19T03:23:47;24.90;46.10
56172;DHT22;42052;41.634;-0.946;2022-08-19T03:26:14;24.80;46.10
56172;DHT22;42052;41.634;-0.946;2022-08-19T03:28:46;24.80;46.10
56172;DHT22;42052;41.634;-0.946;2022-08-19T03:31:19;24.90;46.20
56172;DHT22;42052;41.634;-0.946;2022-08-19T03:33:47;24.90;46.10
56172;DHT22;42052;41.634;-0.946;2022-08-19T03:36:21;24.90;46.00
56172;DHT22;42052;41.634;-0.946;2022-08-19T03:38:57;24.90;46.00
56172;DHT22;42052;41.634;-0.946;2022-08-19T03:41:36;24.90;45.90
56172;DHT22;42052;41.634;-0.946;2022-08-19T03:44:03;24.90;45.90
56172;DHT22;42052;41.634;-0.946;2022-08-19T03:46:32;24.90;46.00
56172;DHT22;42052;41.634;-0.946;2022-08-19T03:49:00;24.90;45.90
56172;DHT22;42052;41.634;-0.946;2022-08-19T03:51:31;24.90;45.80
56172;DHT22;42052;41.634;-0.946;2022-08-19T03:53:59;24.90;45.70
56172;DHT22;42052;41.634;-0.946;2022-08-19T03:56:25;24.90;45.60
56172;DHT22;42052;41.634;-0.946;2022-08-19T03:58:54;24.90;45.70
56172;DHT22;42052;41.634;-0.946;2022-08-19T04:01:22;24.90;45.60
56172;DHT22;42052;41.634;-0.946;2022-08-19T04:03:49;24.90;45.70
56172;DHT22;42052;41.634;-0.946;2022-08-19T04:06:17;24.90;45.60
56172;DHT22;42052;41.634;-0.946;2022-08-19T04:08:45;24.90;45.60
56172;DHT22;42052;41.634;-0.946;2022-08-19T04:11:14;24.90;45.60
56172;DHT22;42052;41.634;-0.946;2022-08-19T04:13:40;24.90;45.60
56172;DHT22;42052;41.634;-0.946;2022-08-19T04:16:06;24.90;45.50
56172;DHT22;42052;41.634;-0.946;2022-08-19T04:18:35;24.80;45.50
56172;DHT22;42052;41.634;-0.946;2022-08-19T04:21:01;24.80;45.50
56172;DHT22;42052;41.634;-0.946;2022-08-19T04:23:27;24.80;45.50
56172;DHT22;42052;41.634;-0.946;2022-08-19T04:25:57;24.70;45.60
56172;DHT22;42052;41.634;-0.946;2022-08-19T04:28:23;24.70;46.30
56172;DHT22;42052;41.634;-0.946;2022-08-19T04:30:52;24.70;45.60
56172;DHT22;42052;41.634;-0.946;2022-08-19T04:33:23;24.70;45.60
56172;DHT22;42052;41.634;-0.946;2022-08-19T04:35:50;24.60;45.60
56172;DHT22;42052;41.634;-0.946;2022-08-19T04:38:18;24.60;45.60
56172;DHT22;42052;41.634;-0.946;2022-08-19T04:40:46;24.60;46.40
56172;DHT22;42052;41.634;-0.946;2022-08-19T04:43:31;24.60;45.70
56172;DHT22;42052;41.634;-0.946;2022-08-19T04:45:58;24.70;45.80
56172;DHT22;42052;41.634;-0.946;2022-08-19T04:48:29;24.70;45.70
56172;DHT22;42052;41.634;-0.946;2022-08-19T04:50:56;24.70;45.80
56172;DHT22;42052;41.634;-0.946;2022-08-19T04:53:27;24.70;45.80
56172;DHT22;42052;41.634;-0.946;2022-08-19T04:55:55;24.70;45.80
56172;DHT22;42052;41.634;-0.946;2022-08-19T04:58:23;24.70;45.80
56172;DHT22;42052;41.634;-0.946;2022-08-19T05:00:49;24.60;46.20
56172;DHT22;42052;41.634;-0.946;2022-08-19T05:03:15;24.50;46.40
56172;DHT22;42052;41.634;-0.946;2022-08-19T05:05:43;24.50;46.60
56172;DHT22;42052;41.634;-0.946;2022-08-19T05:08:11;24.60;46.40
56172;DHT22;42052;41.634;-0.946;2022-08-19T05:10:37;24.70;46.30
56172;DHT22;42052;41.634;-0.946;2022-08-19T05:13:04;24.70;46.20
56172;DHT22;42052;41.634;-0.946;2022-08-19T05:15:30;24.70;46.20
56172;DHT22;42052;41.634;-0.946;2022-08-19T05:17:56;24.60;46.30
56172;DHT22;42052;41.634;-0.946;2022-08-19T05:20:41;24.60;46.40
56172;DHT22;42052;41.634;-0.946;2022-08-19T05:23:25;24.50;46.70
56172;DHT22;42052;41.634;-0.946;2022-08-19T05:25:51;24.50;46.70
56172;DHT22;42052;41.634;-0.946;2022-08-19T05:28:19;24.50;46.70
56172;DHT22;42052;41.634;-0.946;2022-08-19T05:30:45;24.60;46.60
56172;DHT22;42052;41.634;-0.946;2022-08-19T05:33:11;24.50;46.50
56172;DHT22;42052;41.634;-0.946;2022-08-19T05:35:40;24.50;46.50
56172;DHT22;42052;41.634;-0.946;2022-08-19T05:38:07;24.60;46.40
56172;DHT22;42052;41.634;-0.946;2022-08-19T05:40:38;24.60;46.30
56172;DHT22;42052;41.634;-0.946;2022-08-19T05:43:06;24.50;46.50
56172;DHT22;42052;41.634;-0.946;2022-08-19T05:45:32;24.60;46.30
56172;DHT22;42052;41.634;-0.946;2022-08-19T05:47:58;24.50;46.40
56172;DHT22;42052;41.634;-0.946;2022-08-19T05:50:25;24.50;46.40
56172;DHT22;42052;41.634;-0.946;2022-08-19T05:52:53;24.50;46.40
56172;DHT22;42052;41.634;-0.946;2022-08-19T05:55:19;24.60;46.30
56172;DHT22;42052;41.634;-0.946;2022-08-19T05:57:46;24.50;46.20
56172;DHT22;42052;41.634;-0.946;2022-08-19T06:00:13;24.60;46.10
56172;DHT22;42052;41.634;-0.946;2022-08-19T06:02:40;24.50;46.40
56172;DHT22;42052;41.634;-0.946;2022-08-19T06:05:07;24.50;46.40
56172;DHT22;42052;41.634;-0.946;2022-08-19T06:07:35;24.60;46.50
56172;DHT22;42052;41.634;-0.946;2022-08-19T06:10:03;24.50;46.40
56172;DHT22;42052;41.634;-0.946;2022-08-19T06:12:30;24.50;46.40
56172;DHT22;42052;41.634;-0.946;2022-08-19T06:15:00;24.50;46.70
56172;DHT22;42052;41.634;-0.946;2022-08-19T06:17:30;24.50;46.60
56172;DHT22;42052;41.634;-0.946;2022-08-19T06:19:56;24.50;46.50
56172;DHT22;42052;41.634;-0.946;2022-08-19T06:22:22;24.40;46.70
56172;DHT22;42052;41.634;-0.946;2022-08-19T06:24:48;24.40;47.00
56172;DHT22;42052;41.634;-0.946;2022-08-19T06:27:18;24.20;47.00
56172;DHT22;42052;41.634;-0.946;2022-08-19T06:29:44;24.20;47.20
56172;DHT22;42052;41.634;-0.946;2022-08-19T06:32:14;24.20;47.10
56172;DHT22;42052;41.634;-0.946;2022-08-19T06:34:40;24.20;47.10
56172;DHT22;42052;41.634;-0.946;2022-08-19T06:37:07;24.10;47.30
56172;DHT22;42052;41.634;-0.946;2022-08-19T06:39:36;24.10;47.30
56172;DHT22;42052;41.634;-0.946;2022-08-19T06:42:05;24.10;47.20
56172;DHT22;42052;41.634;-0.946;2022-08-19T06:44:34;24.10;47.30
56172;DHT22;42052;41.634;-0.946;2022-08-19T06:47:07;24.10;47.00
56172;DHT22;42052;41.634;-0.946;2022-08-19T06:49:34;24.20;47.10
56172;DHT22;42052;41.634;-0.946;2022-08-19T06:52:01;24.10;47.20
56172;DHT22;42052;41.634;-0.946;2022-08-19T06:54:28;24.20;47.10
56172;DHT22;42052;41.634;-0.946;2022-08-19T06:56:56;24.20;47.10
56172;DHT22;42052;41.634;-0.946;2022-08-19T06:59:24;24.20;47.10
56172;DHT22;42052;41.634;-0.946;2022-08-19T07:01:55;24.10;46.90
56172;DHT22;42052;41.634;-0.946;2022-08-19T07:04:29;24.10;47.00
56172;DHT22;42052;41.634;-0.946;2022-08-19T07:07:11;24.00;47.20
56172;DHT22;42052;41.634;-0.946;2022-08-19T07:09:41;24.10;47.00
56172;DHT22;42052;41.634;-0.946;2022-08-19T07:12:11;24.10;47.00
56172;DHT22;42052;41.634;-0.946;2022-08-19T07:14:37;24.10;46.90
56172;DHT22;42052;41.634;-0.946;2022-08-19T07:17:06;24.00;46.90
56172;DHT22;42052;41.634;-0.946;2022-08-19T07:19:33;24.00;46.80
56172;DHT22;42052;41.634;-0.946;2022-08-19T07:22:05;24.10;46.80
56172;DHT22;42052;41.634;-0.946;2022-08-19T07:24:31;24.10;46.50
56172;DHT22;42052;41.634;-0.946;2022-08-19T07:27:00;24.10;46.60
56172;DHT22;42052;41.634;-0.946;2022-08-19T07:29:29;24.10;46.70
56172;DHT22;42052;41.634;-0.946;2022-08-19T07:31:56;24.10;46.80
56172;DHT22;42052;41.634;-0.946;2022-08-19T07:34:25;24.10;46.60
56172;DHT22;42052;41.634;-0.946;2022-08-19T07:36:51;24.10;46.50
56172;DHT22;42052;41.634;-0.946;2022-08-19T07:39:24;24.10;46.50
56172;DHT22;42052;41.634;-0.946;2022-08-19T07:41:50;24.10;46.50
56172;DHT22;42052;41.634;-0.946;2022-08-19T07:44:17;24.20;46.50
56172;DHT22;42052;41.634;-0.946;2022-08-19T07:46:47;24.20;46.50
56172;DHT22;42052;41.634;-0.946;2022-08-19T07:49:14;24.10;46.50
56172;DHT22;42052;41.634;-0.946;2022-08-19T07:51:50;24.00;46.80
56172;DHT22;42052;41.634;-0.946;2022-08-19T07:54:18;24.00;46.70
56172;DHT22;42052;41.634;-0.946;2022-08-19T07:56:44;23.90;46.70
56172;DHT22;42052;41.634;-0.946;2022-08-19T07:59:11;24.00;46.80
56172;DHT22;42052;41.634;-0.946;2022-08-19T08:01:38;24.00;46.70
56172;DHT22;42052;41.634;-0.946;2022-08-19T08:04:06;23.90;46.70
56172;DHT22;42052;41.634;-0.946;2022-08-19T08:06:52;23.90;46.70
56172;DHT22;42052;41.634;-0.946;2022-08-19T08:09:39;24.00;46.50
56172;DHT22;42052;41.634;-0.946;2022-08-19T08:12:11;24.00;46.50
56172;DHT22;42052;41.634;-0.946;2022-08-19T08:14:39;24.00;46.50
56172;DHT22;42052;41.634;-0.946;2022-08-19T08:17:08;24.00;46.30
56172;DHT22;42052;41.634;-0.946;2022-08-19T08:19:35;24.10;46.40
56172;DHT22;42052;41.634;-0.946;2022-08-19T08:22:02;24.10;46.40
56172;DHT22;42052;41.634;-0.946;2022-08-19T08:24:30;24.00;46.50
56172;DHT22;42052;41.634;-0.946;2022-08-19T08:26:58;24.00;46.60
56172;DHT22;42052;41.634;-0.946;2022-08-19T08:29:28;24.00;46.90
56172;DHT22;42052;41.634;-0.946;2022-08-19T08:31:55;24.00;46.60
56172;DHT22;42052;41.634;-0.946;2022-08-19T08:34:21;24.00;46.80
56172;DHT22;42052;41.634;-0.946;2022-08-19T08:36:47;24.00;46.70
56172;DHT22;42052;41.634;-0.946;2022-08-19T08:39:16;24.10;46.70
56172;DHT22;42052;41.634;-0.946;2022-08-19T08:44:33;24.10;46.80
56172;DHT22;42052;41.634;-0.946;2022-08-19T08:47:10;24.10;46.70
56172;DHT22;42052;41.634;-0.946;2022-08-19T08:50:02;24.10;46.60
56172;DHT22;42052;41.634;-0.946;2022-08-19T08:52:31;24.10;46.50
56172;DHT22;42052;41.634;-0.946;2022-08-19T08:55:08;24.10;46.60
56172;DHT22;42052;41.634;-0.946;2022-08-19T09:02:56;24.10;46.70
56172;DHT22;42052;41.634;-0.946;2022-08-19T09:05:25;24.20;46.60
56172;DHT22;42052;41.634;-0.946;2022-08-19T09:10:51;24.30;46.10
56172;DHT22;42052;41.634;-0.946;2022-08-19T09:13:21;24.40;46.10
56172;DHT22;42052;41.634;-0.946;2022-08-19T09:16:06;24.40;46.10
56172;DHT22;42052;41.634;-0.946;2022-08-19T09:18:47;24.40;47.10
56172;DHT22;42052;41.634;-0.946;2022-08-19T09:21:14;24.40;46.30
56172;DHT22;42052;41.634;-0.946;2022-08-19T09:23:40;24.40;46.20
56172;DHT22;42052;41.634;-0.946;2022-08-19T09:26:12;24.50;46.10
56172;DHT22;42052;41.634;-0.946;2022-08-19T09:28:42;24.40;46.00
56172;DHT22;42052;41.634;-0.946;2022-08-19T09:31:13;24.50;46.20
56172;DHT22;42052;41.634;-0.946;2022-08-19T09:33:39;24.40;46.30
56172;DHT22;42052;41.634;-0.946;2022-08-19T09:36:11;24.40;46.20
56172;DHT22;42052;41.634;-0.946;2022-08-19T09:38:38;24.40;46.50
56172;DHT22;42052;41.634;-0.946;2022-08-19T09:41:10;24.40;46.40
56172;DHT22;42052;41.634;-0.946;2022-08-19T09:43:40;24.40;46.80
56172;DHT22;42052;41.634;-0.946;2022-08-19T09:46:07;24.40;46.60
56172;DHT22;42052;41.634;-0.946;2022-08-19T09:48:35;24.30;46.50
56172;DHT22;42052;41.634;-0.946;2022-08-19T09:51:07;24.30;46.60
56172;DHT22;42052;41.634;-0.946;2022-08-19T09:53:37;24.30;47.80
56172;DHT22;42052;41.634;-0.946;2022-08-19T09:56:04;24.30;47.10
56172;DHT22;42052;41.634;-0.946;2022-08-19T09:58:32;24.40;49.60
56172;DHT22;42052;41.634;-0.946;2022-08-19T10:00:59;24.40;47.20
56172;DHT22;42052;41.634;-0.946;2022-08-19T10:03:26;24.40;48.40
56172;DHT22;42052;41.634;-0.946;2022-08-19T10:05:53;24.50;48.70
56172;DHT22;42052;41.634;-0.946;2022-08-19T10:08:35;24.60;48.40
56172;DHT22;42052;41.634;-0.946;2022-08-19T10:11:03;24.60;46.60
56172;DHT22;42052;41.634;-0.946;2022-08-19T10:13:30;24.60;46.30
56172;DHT22;42052;41.634;-0.946;2022-08-19T10:16:08;24.60;46.60
56172;DHT22;42052;41.634;-0.946;2022-08-19T10:18:34;24.70;46.30
56172;DHT22;42052;41.634;-0.946;2022-08-19T10:21:26;24.70;46.20
56172;DHT22;42052;41.634;-0.946;2022-08-19T10:23:54;24.70;45.20
56172;DHT22;42052;41.634;-0.946;2022-08-19T10:26:30;24.70;45.10
56172;DHT22;42052;41.634;-0.946;2022-08-19T10:28:57;24.80;45.20
56172;DHT22;42052;41.634;-0.946;2022-08-19T10:31:30;24.80;45.10
56172;DHT22;42052;41.634;-0.946;2022-08-19T10:33:57;24.80;44.90
56172;DHT22;42052;41.634;-0.946;2022-08-19T10:36:29;24.90;44.80
56172;DHT22;42052;41.634;-0.946;2022-08-19T10:38:58;24.90;45.60
56172;DHT22;42052;41.634;-0.946;2022-08-19T10:41:29;24.90;45.10
56172;DHT22;42052;41.634;-0.946;2022-08-19T10:43:58;25.00;47.30
56172;DHT22;42052;41.634;-0.946;2022-08-19T10:46:26;25.00;46.90
56172;DHT22;42052;41.634;-0.946;2022-08-19T10:48:53;25.10;45.70
56172;DHT22;42052;41.634;-0.946;2022-08-19T10:51:19;25.10;47.30
56172;DHT22;42052;41.634;-0.946;2022-08-19T10:54:04;25.10;46.00
56172;DHT22;42052;41.634;-0.946;2022-08-19T10:56:31;25.10;46.20
56172;DHT22;42052;41.634;-0.946;2022-08-19T10:59:26;25.10;46.00
56172;DHT22;42052;41.634;-0.946;2022-08-19T11:01:54;25.10;45.60
56172;DHT22;42052;41.634;-0.946;2022-08-19T11:04:24;25.20;44.70
56172;DHT22;42052;41.634;-0.946;2022-08-19T11:06:50;25.20;45.10
56172;DHT22;42052;41.634;-0.946;2022-08-19T11:09:23;25.20;44.60
56172;DHT22;42052;41.634;-0.946;2022-08-19T11:11:51;25.20;43.60
56172;DHT22;42052;41.634;-0.946;2022-08-19T11:14:19;25.20;43.50
56172;DHT22;42052;41.634;-0.946;2022-08-19T11:16:47;25.20;43.60
56172;DHT22;42052;41.634;-0.946;2022-08-19T11:19:14;25.20;43.60
56172;DHT22;42052;41.634;-0.946;2022-08-19T11:21:43;25.20;43.70
56172;DHT22;42052;41.634;-0.946;2022-08-19T11:24:19;25.20;43.70
56172;DHT22;42052;41.634;-0.946;2022-08-19T11:26:47;25.30;44.10
56172;DHT22;42052;41.634;-0.946;2022-08-19T11:29:18;25.30;44.10
56172;DHT22;42052;41.634;-0.946;2022-08-19T11:31:47;25.30;44.00
56172;DHT22;42052;41.634;-0.946;2022-08-19T11:34:17;25.30;44.10
56172;DHT22;42052;41.634;-0.946;2022-08-19T11:36:45;25.30;44.00
56172;DHT22;42052;41.634;-0.946;2022-08-19T11:39:13;25.40;44.00
56172;DHT22;42052;41.634;-0.946;2022-08-19T11:41:42;25.40;44.00
56172;DHT22;42052;41.634;-0.946;2022-08-19T11:44:09;25.50;43.90
56172;DHT22;42052;41.634;-0.946;2022-08-19T11:46:36;25.50;43.90
56172;DHT22;42052;41.634;-0.946;2022-08-19T11:49:04;25.60;44.00
56172;DHT22;42052;41.634;-0.946;2022-08-19T11:51:31;25.60;43.80
56172;DHT22;42052;41.634;-0.946;2022-08-19T11:53:58;25.60;43.40
56172;DHT22;42052;41.634;-0.946;2022-08-19T11:56:25;25.60;42.80
56172;DHT22;42052;41.634;-0.946;2022-08-19T11:58:52;25.60;42.60
56172;DHT22;42052;41.634;-0.946;2022-08-19T12:01:20;25.60;42.80
56172;DHT22;42052;41.634;-0.946;2022-08-19T12:03:48;25.70;43.00
56172;DHT22;42052;41.634;-0.946;2022-08-19T12:06:17;25.70;42.80
56172;DHT22;42052;41.634;-0.946;2022-08-19T12:08:44;25.80;43.00
56172;DHT22;42052;41.634;-0.946;2022-08-19T12:11:12;25.80;43.00
56172;DHT22;42052;41.634;-0.946;2022-08-19T12:13:39;25.80;43.10
56172;DHT22;42052;41.634;-0.946;2022-08-19T12:16:09;25.80;43.00
56172;DHT22;42052;41.634;-0.946;2022-08-19T12:18:40;25.80;43.10
56172;DHT22;42052;41.634;-0.946;2022-08-19T12:21:13;25.90;43.10
56172;DHT22;42052;41.634;-0.946;2022-08-19T12:23:40;25.90;43.00
56172;DHT22;42052;41.634;-0.946;2022-08-19T12:26:06;25.90;43.00
56172;DHT22;42052;41.634;-0.946;2022-08-19T12:28:32;25.90;42.80
56172;DHT22;42052;41.634;-0.946;2022-08-19T12:30:58;26.00;42.80
56172;DHT22;42052;41.634;-0.946;2022-08-19T12:33:24;26.00;42.90
56172;DHT22;42052;41.634;-0.946;2022-08-19T12:35:51;26.00;43.30
56172;DHT22;42052;41.634;-0.946;2022-08-19T12:38:18;26.00;42.50
56172;DHT22;42052;41.634;-0.946;2022-08-19T12:40:48;26.10;42.50
56172;DHT22;42052;41.634;-0.946;2022-08-19T12:43:14;26.10;42.30
56172;DHT22;42052;41.634;-0.946;2022-08-19T12:45:41;26.10;42.40
56172;DHT22;42052;41.634;-0.946;2022-08-19T12:48:08;26.10;42.50
56172;DHT22;42052;41.634;-0.946;2022-08-19T12:50:34;26.10;42.30
56172;DHT22;42052;41.634;-0.946;2022-08-19T12:53:00;26.10;42.10
56172;DHT22;42052;41.634;-0.946;2022-08-19T12:55:26;26.10;42.10
56172;DHT22;42052;41.634;-0.946;2022-08-19T12:57:53;26.10;42.20
56172;DHT22;42052;41.634;-0.946;2022-08-19T13:00:21;26.10;42.30
56172;DHT22;42052;41.634;-0.946;2022-08-19T13:02:48;26.10;42.60
56172;DHT22;42052;41.634;-0.946;2022-08-19T13:05:20;26.20;42.80
56172;DHT22;42052;41.634;-0.946;2022-08-19T13:07:49;26.20;42.50
56172;DHT22;42052;41.634;-0.946;2022-08-19T13:10:18;26.20;42.90
56172;DHT22;42052;41.634;-0.946;2022-08-19T13:12:46;26.20;42.90
56172;DHT22;42052;41.634;-0.946;2022-08-19T13:15:14;26.30;42.90
56172;DHT22;42052;41.634;-0.946;2022-08-19T13:17:43;26.30;42.90
56172;DHT22;42052;41.634;-0.946;2022-08-19T13:20:10;26.40;43.60
56172;DHT22;42052;41.634;-0.946;2022-08-19T13:22:37;26.30;42.50
56172;DHT22;42052;41.634;-0.946;2022-08-19T13:25:04;26.30;42.10
56172;DHT22;42052;41.634;-0.946;2022-08-19T13:27:30;26.30;42.10
56172;DHT22;42052;41.634;-0.946;2022-08-19T13:29:56;26.30;42.00
56172;DHT22;42052;41.634;-0.946;2022-08-19T13:32:41;26.20;42.00
56172;DHT22;42052;41.634;-0.946;2022-08-19T13:35:25;26.20;42.00
56172;DHT22;42052;41.634;-0.946;2022-08-19T13:37:51;26.30;42.60
56172;DHT22;42052;41.634;-0.946;2022-08-19T13:40:23;26.30;42.40
56172;DHT22;42052;41.634;-0.946;2022-08-19T13:42:51;26.30;42.80
56172;DHT22;42052;41.634;-0.946;2022-08-19T13:45:20;26.30;42.50
56172;DHT22;42052;41.634;-0.946;2022-08-19T13:47:47;26.30;42.50
56172;DHT22;42052;41.634;-0.946;2022-08-19T13:50:16;26.30;42.40
56172;DHT22;42052;41.634;-0.946;2022-08-19T13:52:43;26.40;42.30
56172;DHT22;42052;41.634;-0.946;2022-08-19T13:55:10;26.40;42.50
56172;DHT22;42052;41.634;-0.946;2022-08-19T13:57:36;26.40;42.40
56172;DHT22;42052;41.634;-0.946;2022-08-19T14:00:07;26.40;42.50
56172;DHT22;42052;41.634;-0.946;2022-08-19T14:02:36;26.40;42.50
56172;DHT22;42052;41.634;-0.946;2022-08-19T14:05:04;26.50;42.40
56172;DHT22;42052;41.634;-0.946;2022-08-19T14:07:30;26.50;42.40
56172;DHT22;42052;41.634;-0.946;2022-08-19T14:09:56;26.50;42.20
56172;DHT22;42052;41.634;-0.946;2022-08-19T14:12:22;26.50;41.90
56172;DHT22;42052;41.634;-0.946;2022-08-19T14:14:48;26.50;42.50
56172;DHT22;42052;41.634;-0.946;2022-08-19T14:17:15;26.50;42.50
56172;DHT22;42052;41.634;-0.946;2022-08-19T14:19:41;26.50;42.50
56172;DHT22;42052;41.634;-0.946;2022-08-19T14:22:07;26.50;42.70
56172;DHT22;42052;41.634;-0.946;2022-08-19T14:24:33;26.50;42.70
56172;DHT22;42052;41.634;-0.946;2022-08-19T14:26:59;26.60;42.70
56172;DHT22;42052;41.634;-0.946;2022-08-19T14:29:26;26.50;42.40
56172;DHT22;42052;41.634;-0.946;2022-08-19T14:31:54;26.50;42.30
56172;DHT22;42052;41.634;-0.946;2022-08-19T14:34:21;26.50;42.00
56172;DHT22;42052;41.634;-0.946;2022-08-19T14:36:47;26.50;41.80
56172;DHT22;42052;41.634;-0.946;2022-08-19T14:39:13;26.60;41.90
56172;DHT22;42052;41.634;-0.946;2022-08-19T14:41:40;26.60;41.90
56172;DHT22;42052;41.634;-0.946;2022-08-19T14:44:07;26.60;41.40
56172;DHT22;42052;41.634;-0.946;2022-08-19T14:46:35;26.60;40.70
56172;DHT22;42052;41.634;-0.946;2022-08-19T14:49:01;26.70;41.30
56172;DHT22;42052;41.634;-0.946;2022-08-19T14:51:27;26.60;40.80
56172;DHT22;42052;41.634;-0.946;2022-08-19T14:53:54;26.60;40.80
56172;DHT22;42052;41.634;-0.946;2022-08-19T14:56:24;26.60;40.80
56172;DHT22;42052;41.634;-0.946;2022-08-19T14:58:50;26.60;40.90
56172;DHT22;42052;41.634;-0.946;2022-08-19T15:01:18;26.60;40.80
56172;DHT22;42052;41.634;-0.946;2022-08-19T15:03:46;26.70;40.60
56172;DHT22;42052;41.634;-0.946;2022-08-19T15:06:12;26.70;40.80
56172;DHT22;42052;41.634;-0.946;2022-08-19T15:08:39;26.70;40.80
56172;DHT22;42052;41.634;-0.946;2022-08-19T15:11:11;26.70;41.20
56172;DHT22;42052;41.634;-0.946;2022-08-19T15:13:37;26.70;41.20
56172;DHT22;42052;41.634;-0.946;2022-08-19T15:16:03;26.70;41.00
56172;DHT22;42052;41.634;-0.946;2022-08-19T15:18:29;26.70;40.90
56172;DHT22;42052;41.634;-0.946;2022-08-19T15:20:55;26.80;41.00
56172;DHT22;42052;41.634;-0.946;2022-08-19T15:23:22;26.80;40.90
56172;DHT22;42052;41.634;-0.946;2022-08-19T15:25:49;26.80;41.20
56172;DHT22;42052;41.634;-0.946;2022-08-19T15:28:18;26.80;40.90
56172;DHT22;42052;41.634;-0.946;2022-08-19T15:30:44;26.80;40.70
56172;DHT22;42052;41.634;-0.946;2022-08-19T15:33:11;26.80;40.60
56172;DHT22;42052;41.634;-0.946;2022-08-19T15:35:42;26.80;40.50